Amesville, Ohio
Current Conditions -  °F | °C
As of 5:15 PM on Tuesday 21 Oct 2014 (Local Time) from KUNI Reporting Station
Drizzle Drizzle  
Wind Chill: 51°   Ceiling: 4400
Heat Index: 51°   Visibility: 10mi
Dew Point: 46°   Wind: 5mph
Humidity: 83%   Direction: 310°NW
Pressure: 30.02"   Gusts: NA
Location:  39.4°N, 81.96°W
Report Text: KUNI 212115Z AUTO 31004KT 10SM -DZ SCT017 SCT031 OVC044 10/08 A3002 RMK AO2 T01030076
Loading
Personal Weather Stations






























Interactive Weather Map New forecast layout! Learn more

10-Day Weather Forecast

Advertisements
Track Severe Weather on mobile